Enon, VA

6:41 AM EST on February 24, 2017 (GMT -0500)
Skywarn Spotter CFD0022 | | Change Station
Active Advisory: Special Statement

Elev 60 ft 37.29 °N, 77.40 °W | Updated 7 seconds ago

Fog
Fog
49.5 °F
Feels Like 50 °F
N
0.0
Wind Variable Wind from WNW
Gusts 0.7 mph

Today
High -- | Low -- °F
--% Chance of Precip.
Yesterday
High -- | Low -- °F
Precip. -- in
Pressure 29.95 in
Visibility 0.2 miles
Clouds Overcast 500 ft
Windchill 50 °F
Dew Point 50 °F
Humidity 100%
Rainfall 0.00 in
Snow Depth Not available.
6:46 AM 5:58 PM
Waning Crescent, 5% visible
SPECI KFCI 241128Z 00000KT 1/4SM OVC005 09/01 A2995 RMK AO1
Pressure 29.95 in
Visibility 0.2 miles
Clouds Overcast 500 ft
Windchill 50 °F
Dew Point 50 °F
Humidity 100%
Rainfall 0.00 in
Snow Depth Not available.
6:46 AM 5:58 PM
Waning Crescent, 5% visible
SPECI KFCI 241128Z 00000KT 1/4SM OVC005 09/01 A2995 RMK AO1

Get Your Daily Forecast Email!

Thanks for signing up!

Be on the lookout for a verification email in your inbox.

You'll start receiving the daily forecast at 8 AM.

×

10-Day Weather Forecast

Almanac

Astronomy

Feb. 24, 2017 Rise Set
Actual Time
Civil Twilight
Nautical Twilight
Astronomical Twilight
Moon
Length of Visible Light
Length of Day
Tomorrow will be .
, % of the Moon is Illuminated

Today's Extremes

State Highs State Lows

Community

WunderPhotos

Upload Photos

1,962,540 photos uploaded!

WunderBlog® & News

Nearby

Air Quality

  Air Quality AQ Index Pollutant
Not available.

Snow Depth

Station Depth Elevation

Earthquake Activity

City Distance Mag. Time & Date
Minimum magnitude displayed is 2.5.

Coastal Water Temperatures

Place Temperature

Stations

Nearby Weather Stations

Station Location Temp. Windchill Dew Point Humidity Wind Precip. Elev Updated Type
                   

Watches & Warnings

Special Statement
Issued: 6:07 AM EST Feb. 24, 2017 – National Weather Service

... Areas of fog this morning...

Areas of fog continue across the region this morning. Visibilities
vary but generally range between one half mile to two miles, with
some locations under one half mile. Visibilities are expected to
improve by mid morning.

Motorists should be alert for sudden changes in visibility due to
the areas of fog. Drive at reduced speeds, and use low beam
headlights only.

Lat... Lon 3668 7870 3664 7856 3670 7865 3707 7844
      3720 7869 3740 7859 3730 7835 3744 7818
      3746 7743 3738 7732 3719 7745 3702 7735
      3674 7737 3667 7750 3663 7738 3626 7741
      3631 7757 3648 7765 3654 7790 3654 7873
time... Mot... loc 1103z 240deg 49kt 3710 7769


Scalora